sensor_id;sensor_type;location;lat;lon;timestamp;temperature;humidity
62904;DHT22;49000;50.698;13.322;2023-07-29T00:01:15;16.90;99.90
62904;DHT22;49000;50.698;13.322;2023-07-29T00:03:41;16.80;99.90
62904;DHT22;49000;50.698;13.322;2023-07-29T00:06:06;16.80;99.90
62904;DHT22;49000;50.698;13.322;2023-07-29T00:08:32;16.70;99.90
62904;DHT22;49000;50.698;13.322;2023-07-29T00:10:57;16.70;99.90
62904;DHT22;49000;50.698;13.322;2023-07-29T00:13:23;16.70;99.90
62904;DHT22;49000;50.698;13.322;2023-07-29T00:15:48;16.80;99.90
62904;DHT22;49000;50.698;13.322;2023-07-29T00:18:14;16.80;99.90
62904;DHT22;49000;50.698;13.322;2023-07-29T00:20:39;16.80;99.90
62904;DHT22;49000;50.698;13.322;2023-07-29T00:23:05;16.80;99.90
62904;DHT22;49000;50.698;13.322;2023-07-29T00:25:30;16.80;99.90
62904;DHT22;49000;50.698;13.322;2023-07-29T00:27:56;16.90;99.90
62904;DHT22;49000;50.698;13.322;2023-07-29T00:30:22;16.90;99.90
62904;DHT22;49000;50.698;13.322;2023-07-29T00:32:47;16.90;99.90
62904;DHT22;49000;50.698;13.322;2023-07-29T00:35:13;17.00;99.90
62904;DHT22;49000;50.698;13.322;2023-07-29T00:37:38;17.00;99.90
62904;DHT22;49000;50.698;13.322;2023-07-29T00:40:20;17.00;99.90
62904;DHT22;49000;50.698;13.322;2023-07-29T00:42:46;17.10;99.90
62904;DHT22;49000;50.698;13.322;2023-07-29T00:45:12;17.10;99.90
62904;DHT22;49000;50.698;13.322;2023-07-29T00:47:38;17.10;99.90
62904;DHT22;49000;50.698;13.322;2023-07-29T00:50:05;17.10;99.90
62904;DHT22;49000;50.698;13.322;2023-07-29T00:52:32;17.10;99.90
62904;DHT22;49000;50.698;13.322;2023-07-29T00:54:57;17.10;99.90
62904;DHT22;49000;50.698;13.322;2023-07-29T00:57:23;17.10;99.90
62904;DHT22;49000;50.698;13.322;2023-07-29T00:59:50;17.10;99.90
62904;DHT22;49000;50.698;13.322;2023-07-29T01:02:16;17.10;99.90
62904;DHT22;49000;50.698;13.322;2023-07-29T01:04:42;17.10;99.90
62904;DHT22;49000;50.698;13.322;2023-07-29T01:10:05;17.10;99.90
62904;DHT22;49000;50.698;13.322;2023-07-29T01:12:54;17.10;99.90
62904;DHT22;49000;50.698;13.322;2023-07-29T01:18:30;17.00;99.90
62904;DHT22;49000;50.698;13.322;2023-07-29T01:20:59;17.00;99.90
62904;DHT22;49000;50.698;13.322;2023-07-29T01:23:33;17.00;99.90
62904;DHT22;49000;50.698;13.322;2023-07-29T01:25:58;17.00;99.90
62904;DHT22;49000;50.698;13.322;2023-07-29T01:28:25;17.00;99.90
62904;DHT22;49000;50.698;13.322;2023-07-29T01:30:55;16.90;99.90
62904;DHT22;49000;50.698;13.322;2023-07-29T01:33:33;16.90;99.90
62904;DHT22;49000;50.698;13.322;2023-07-29T01:36:13;16.90;99.90
62904;DHT22;49000;50.698;13.322;2023-07-29T01:38:41;16.90;99.90
62904;DHT22;49000;50.698;13.322;2023-07-29T01:41:08;16.80;99.90
62904;DHT22;49000;50.698;13.322;2023-07-29T01:43:34;16.80;99.90
62904;DHT22;49000;50.698;13.322;2023-07-29T01:46:07;16.80;99.90
62904;DHT22;49000;50.698;13.322;2023-07-29T01:48:32;16.80;99.90
62904;DHT22;49000;50.698;13.322;2023-07-29T01:50:58;16.80;99.90
62904;DHT22;49000;50.698;13.322;2023-07-29T01:53:23;16.70;99.90
62904;DHT22;49000;50.698;13.322;2023-07-29T01:55:49;16.70;99.90
62904;DHT22;49000;50.698;13.322;2023-07-29T01:58:14;16.60;99.90
62904;DHT22;49000;50.698;13.322;2023-07-29T02:00:40;16.60;99.90
62904;DHT22;49000;50.698;13.322;2023-07-29T02:03:05;16.60;99.90
62904;DHT22;49000;50.698;13.322;2023-07-29T02:05:31;16.60;99.90
62904;DHT22;49000;50.698;13.322;2023-07-29T02:07:56;16.60;99.90
62904;DHT22;49000;50.698;13.322;2023-07-29T02:10:22;16.50;99.90
62904;DHT22;49000;50.698;13.322;2023-07-29T02:12:47;16.50;99.90
62904;DHT22;49000;50.698;13.322;2023-07-29T02:15:13;16.50;99.90
62904;DHT22;49000;50.698;13.322;2023-07-29T02:17:41;16.50;99.90
62904;DHT22;49000;50.698;13.322;2023-07-29T02:20:06;16.50;99.90
62904;DHT22;49000;50.698;13.322;2023-07-29T02:22:32;16.50;99.90
62904;DHT22;49000;50.698;13.322;2023-07-29T02:24:58;16.50;99.90
62904;DHT22;49000;50.698;13.322;2023-07-29T02:27:23;16.50;99.90
62904;DHT22;49000;50.698;13.322;2023-07-29T02:29:52;16.50;99.90
62904;DHT22;49000;50.698;13.322;2023-07-29T02:32:18;16.50;99.90
62904;DHT22;49000;50.698;13.322;2023-07-29T02:34:44;16.40;99.90
62904;DHT22;49000;50.698;13.322;2023-07-29T02:37:09;16.40;99.90
62904;DHT22;49000;50.698;13.322;2023-07-29T02:39:35;16.40;99.90
62904;DHT22;49000;50.698;13.322;2023-07-29T02:42:00;16.40;99.90
62904;DHT22;49000;50.698;13.322;2023-07-29T02:44:26;16.40;99.90
62904;DHT22;49000;50.698;13.322;2023-07-29T02:46:51;16.40;99.90
62904;DHT22;49000;50.698;13.322;2023-07-29T02:49:18;16.50;99.90
62904;DHT22;49000;50.698;13.322;2023-07-29T02:51:43;16.50;99.90
62904;DHT22;49000;50.698;13.322;2023-07-29T02:54:09;16.50;99.90
62904;DHT22;49000;50.698;13.322;2023-07-29T02:56:34;16.60;99.90
62904;DHT22;49000;50.698;13.322;2023-07-29T02:59:00;16.60;99.90
62904;DHT22;49000;50.698;13.322;2023-07-29T03:01:26;16.70;99.90
62904;DHT22;49000;50.698;13.322;2023-07-29T03:03:52;16.70;99.90
62904;DHT22;49000;50.698;13.322;2023-07-29T03:06:18;16.70;99.90
62904;DHT22;49000;50.698;13.322;2023-07-29T03:08:44;16.80;99.90
62904;DHT22;49000;50.698;13.322;2023-07-29T03:11:12;16.80;99.90
62904;DHT22;49000;50.698;13.322;2023-07-29T03:13:38;16.80;99.90
62904;DHT22;49000;50.698;13.322;2023-07-29T03:18:35;16.90;99.90
62904;DHT22;49000;50.698;13.322;2023-07-29T03:21:01;16.80;99.90
62904;DHT22;49000;50.698;13.322;2023-07-29T03:23:31;16.90;99.90
62904;DHT22;49000;50.698;13.322;2023-07-29T03:25:58;16.90;99.90
62904;DHT22;49000;50.698;13.322;2023-07-29T03:28:33;16.90;99.90
62904;DHT22;49000;50.698;13.322;2023-07-29T03:30:59;16.90;99.90
62904;DHT22;49000;50.698;13.322;2023-07-29T03:33:25;17.00;99.90
62904;DHT22;49000;50.698;13.322;2023-07-29T03:35:52;17.00;99.90
62904;DHT22;49000;50.698;13.322;2023-07-29T03:38:18;17.00;99.90
62904;DHT22;49000;50.698;13.322;2023-07-29T03:40:44;17.00;99.90
62904;DHT22;49000;50.698;13.322;2023-07-29T03:43:09;17.00;99.90
62904;DHT22;49000;50.698;13.322;2023-07-29T03:45:36;17.10;99.90
62904;DHT22;49000;50.698;13.322;2023-07-29T03:48:02;17.10;99.90
62904;DHT22;49000;50.698;13.322;2023-07-29T03:50:29;17.10;99.90
62904;DHT22;49000;50.698;13.322;2023-07-29T03:52:55;17.20;99.90
62904;DHT22;49000;50.698;13.322;2023-07-29T03:55:20;17.20;99.90
62904;DHT22;49000;50.698;13.322;2023-07-29T03:57:46;17.20;99.90
62904;DHT22;49000;50.698;13.322;2023-07-29T04:00:12;17.20;99.90
62904;DHT22;49000;50.698;13.322;2023-07-29T04:02:38;17.20;99.90
62904;DHT22;49000;50.698;13.322;2023-07-29T04:05:04;17.30;99.90
62904;DHT22;49000;50.698;13.322;2023-07-29T04:07:31;17.20;99.90
62904;DHT22;49000;50.698;13.322;2023-07-29T04:09:57;17.30;99.90
62904;DHT22;49000;50.698;13.322;2023-07-29T04:12:23;17.30;99.90
62904;DHT22;49000;50.698;13.322;2023-07-29T04:14:49;17.40;99.90
62904;DHT22;49000;50.698;13.322;2023-07-29T04:17:14;17.40;99.90
62904;DHT22;49000;50.698;13.322;2023-07-29T04:19:40;17.40;99.90
62904;DHT22;49000;50.698;13.322;2023-07-29T04:22:05;17.40;99.90
62904;DHT22;49000;50.698;13.322;2023-07-29T04:24:31;17.40;99.90
62904;DHT22;49000;50.698;13.322;2023-07-29T04:26:56;17.40;99.90
62904;DHT22;49000;50.698;13.322;2023-07-29T04:29:22;17.40;99.90
62904;DHT22;49000;50.698;13.322;2023-07-29T04:31:49;17.50;99.90
62904;DHT22;49000;50.698;13.322;2023-07-29T04:34:14;17.50;99.90
62904;DHT22;49000;50.698;13.322;2023-07-29T04:36:40;17.50;99.90
62904;DHT22;49000;50.698;13.322;2023-07-29T04:39:05;17.50;99.90
62904;DHT22;49000;50.698;13.322;2023-07-29T04:41:31;17.50;99.90
62904;DHT22;49000;50.698;13.322;2023-07-29T04:43:56;17.50;99.90
62904;DHT22;49000;50.698;13.322;2023-07-29T04:46:22;17.50;99.90
62904;DHT22;49000;50.698;13.322;2023-07-29T04:48:47;17.50;99.90
62904;DHT22;49000;50.698;13.322;2023-07-29T04:51:13;17.50;99.90
62904;DHT22;49000;50.698;13.322;2023-07-29T04:53:38;17.60;99.90
62904;DHT22;49000;50.698;13.322;2023-07-29T04:56:04;17.60;99.90
62904;DHT22;49000;50.698;13.322;2023-07-29T04:58:30;17.60;99.90
62904;DHT22;49000;50.698;13.322;2023-07-29T05:00:56;17.70;99.90
62904;DHT22;49000;50.698;13.322;2023-07-29T05:03:21;17.70;99.90
62904;DHT22;49000;50.698;13.322;2023-07-29T05:05:47;17.80;99.90
62904;DHT22;49000;50.698;13.322;2023-07-29T05:08:12;17.80;99.90
62904;DHT22;49000;50.698;13.322;2023-07-29T05:10:38;17.80;99.90
62904;DHT22;49000;50.698;13.322;2023-07-29T05:13:04;17.90;99.90
62904;DHT22;49000;50.698;13.322;2023-07-29T05:15:29;18.00;99.90
62904;DHT22;49000;50.698;13.322;2023-07-29T05:17:55;18.00;99.90
62904;DHT22;49000;50.698;13.322;2023-07-29T05:20:21;18.10;99.90
62904;DHT22;49000;50.698;13.322;2023-07-29T05:22:46;18.20;99.90
62904;DHT22;49000;50.698;13.322;2023-07-29T05:25:12;18.20;99.90
62904;DHT22;49000;50.698;13.322;2023-07-29T05:27:37;18.30;99.90
62904;DHT22;49000;50.698;13.322;2023-07-29T05:30:03;18.40;99.90
62904;DHT22;49000;50.698;13.322;2023-07-29T05:32:29;18.50;99.90
62904;DHT22;49000;50.698;13.322;2023-07-29T05:34:55;18.60;99.90
62904;DHT22;49000;50.698;13.322;2023-07-29T05:37:20;18.60;99.90
62904;DHT22;49000;50.698;13.322;2023-07-29T05:39:46;18.70;99.90
62904;DHT22;49000;50.698;13.322;2023-07-29T05:42:11;18.70;99.90
62904;DHT22;49000;50.698;13.322;2023-07-29T05:44:37;18.70;99.90
62904;DHT22;49000;50.698;13.322;2023-07-29T05:47:02;18.70;99.90
62904;DHT22;49000;50.698;13.322;2023-07-29T05:49:28;18.80;99.90
62904;DHT22;49000;50.698;13.322;2023-07-29T05:51:53;18.90;99.90
62904;DHT22;49000;50.698;13.322;2023-07-29T05:54:19;18.90;99.90
62904;DHT22;49000;50.698;13.322;2023-07-29T05:56:45;18.90;99.90
62904;DHT22;49000;50.698;13.322;2023-07-29T05:59:10;18.90;99.90
62904;DHT22;49000;50.698;13.322;2023-07-29T06:01:36;19.00;99.90
62904;DHT22;49000;50.698;13.322;2023-07-29T06:04:01;19.20;99.90
62904;DHT22;49000;50.698;13.322;2023-07-29T06:06:27;19.30;99.90
62904;DHT22;49000;50.698;13.322;2023-07-29T06:08:52;19.50;99.90
62904;DHT22;49000;50.698;13.322;2023-07-29T06:11:18;19.70;99.90
62904;DHT22;49000;50.698;13.322;2023-07-29T06:13:43;19.70;99.90
62904;DHT22;49000;50.698;13.322;2023-07-29T06:16:09;19.60;99.90
62904;DHT22;49000;50.698;13.322;2023-07-29T06:18:34;19.50;99.90
62904;DHT22;49000;50.698;13.322;2023-07-29T06:21:00;19.40;99.90
62904;DHT22;49000;50.698;13.322;2023-07-29T06:23:25;19.50;99.90
62904;DHT22;49000;50.698;13.322;2023-07-29T06:25:51;19.50;99.90
62904;DHT22;49000;50.698;13.322;2023-07-29T06:28:16;19.70;99.90
62904;DHT22;49000;50.698;13.322;2023-07-29T06:30:42;19.70;99.90
62904;DHT22;49000;50.698;13.322;2023-07-29T06:33:07;19.70;99.90
62904;DHT22;49000;50.698;13.322;2023-07-29T06:35:33;19.70;99.90
62904;DHT22;49000;50.698;13.322;2023-07-29T06:37:58;19.80;99.90
62904;DHT22;49000;50.698;13.322;2023-07-29T06:40:24;19.90;99.90
62904;DHT22;49000;50.698;13.322;2023-07-29T06:42:50;19.90;99.90
62904;DHT22;49000;50.698;13.322;2023-07-29T06:45:15;20.00;99.90
62904;DHT22;49000;50.698;13.322;2023-07-29T06:47:41;20.20;99.90
62904;DHT22;49000;50.698;13.322;2023-07-29T06:50:07;20.50;96.40
62904;DHT22;49000;50.698;13.322;2023-07-29T06:52:32;20.60;83.80
62904;DHT22;49000;50.698;13.322;2023-07-29T06:54:58;20.70;78.60
62904;DHT22;49000;50.698;13.322;2023-07-29T06:57:23;20.80;71.50
62904;DHT22;49000;50.698;13.322;2023-07-29T06:59:49;20.90;65.60
62904;DHT22;49000;50.698;13.322;2023-07-29T07:02:14;21.00;66.20
62904;DHT22;49000;50.698;13.322;2023-07-29T07:04:40;21.10;53.80
62904;DHT22;49000;50.698;13.322;2023-07-29T07:07:05;21.30;43.50
62904;DHT22;49000;50.698;13.322;2023-07-29T07:09:31;21.50;43.20
62904;DHT22;49000;50.698;13.322;2023-07-29T07:11:56;21.60;35.50
62904;DHT22;49000;50.698;13.322;2023-07-29T07:14:22;21.70;42.60
62904;DHT22;49000;50.698;13.322;2023-07-29T07:16:47;21.50;28.60
62904;DHT22;49000;50.698;13.322;2023-07-29T07:19:13;21.50;34.00
62904;DHT22;49000;50.698;13.322;2023-07-29T07:21:38;21.60;30.60
62904;DHT22;49000;50.698;13.322;2023-07-29T07:24:04;21.70;32.30
62904;DHT22;49000;50.698;13.322;2023-07-29T07:26:29;21.80;32.90
62904;DHT22;49000;50.698;13.322;2023-07-29T07:28:55;21.80;26.70
62904;DHT22;49000;50.698;13.322;2023-07-29T07:31:21;21.80;26.20
62904;DHT22;49000;50.698;13.322;2023-07-29T07:33:46;21.90;26.60
62904;DHT22;49000;50.698;13.322;2023-07-29T07:36:12;22.30;24.90
62904;DHT22;49000;50.698;13.322;2023-07-29T07:38:37;22.60;16.30
62904;DHT22;49000;50.698;13.322;2023-07-29T07:41:03;22.90;10.30
62904;DHT22;49000;50.698;13.322;2023-07-29T07:43:28;22.90;8.00
62904;DHT22;49000;50.698;13.322;2023-07-29T07:45:58;22.90;5.40
62904;DHT22;49000;50.698;13.322;2023-07-29T07:48:25;22.70;5.80
62904;DHT22;49000;50.698;13.322;2023-07-29T07:50:50;22.70;1.80
62904;DHT22;49000;50.698;13.322;2023-07-29T07:53:16;22.70;1.30
62904;DHT22;49000;50.698;13.322;2023-07-29T07:55:41;22.50;3.60
62904;DHT22;49000;50.698;13.322;2023-07-29T07:58:07;22.40;1.00
62904;DHT22;49000;50.698;13.322;2023-07-29T08:00:32;22.30;3.20
62904;DHT22;49000;50.698;13.322;2023-07-29T08:02:58;22.20;4.10
62904;DHT22;49000;50.698;13.322;2023-07-29T08:05:23;22.70;2.80
62904;DHT22;49000;50.698;13.322;2023-07-29T08:07:49;23.10;1.00
62904;DHT22;49000;50.698;13.322;2023-07-29T08:10:15;23.40;1.00
62904;DHT22;49000;50.698;13.322;2023-07-29T08:12:40;23.40;1.00
62904;DHT22;49000;50.698;13.322;2023-07-29T08:15:06;23.50;1.00
62904;DHT22;49000;50.698;13.322;2023-07-29T08:17:32;23.40;1.00
62904;DHT22;49000;50.698;13.322;2023-07-29T08:19:57;23.20;1.00
62904;DHT22;49000;50.698;13.322;2023-07-29T08:22:23;23.10;1.00
62904;DHT22;49000;50.698;13.322;2023-07-29T08:24:48;22.90;1.00
62904;DHT22;49000;50.698;13.322;2023-07-29T08:27:14;23.00;1.00
62904;DHT22;49000;50.698;13.322;2023-07-29T08:29:39;23.20;1.00
62904;DHT22;49000;50.698;13.322;2023-07-29T08:32:05;23.60;1.00
62904;DHT22;49000;50.698;13.322;2023-07-29T08:34:30;23.90;1.00
62904;DHT22;49000;50.698;13.322;2023-07-29T08:36:56;24.00;1.00
62904;DHT22;49000;50.698;13.322;2023-07-29T08:39:21;24.00;1.00
62904;DHT22;49000;50.698;13.322;2023-07-29T08:41:56;23.90;1.00
62904;DHT22;49000;50.698;13.322;2023-07-29T08:44:26;24.00;1.00
62904;DHT22;49000;50.698;13.322;2023-07-29T08:46:52;24.10;1.00
62904;DHT22;49000;50.698;13.322;2023-07-29T08:49:19;24.70;1.00
62904;DHT22;49000;50.698;13.322;2023-07-29T08:51:46;24.60;1.00
62904;DHT22;49000;50.698;13.322;2023-07-29T08:54:14;24.20;1.00
62904;DHT22;49000;50.698;13.322;2023-07-29T08:56:41;23.90;1.00
62904;DHT22;49000;50.698;13.322;2023-07-29T08:59:08;23.80;1.00
62904;DHT22;49000;50.698;13.322;2023-07-29T09:01:33;23.60;1.00
62904;DHT22;49000;50.698;13.322;2023-07-29T09:03:59;24.00;1.00
62904;DHT22;49000;50.698;13.322;2023-07-29T09:06:25;24.40;1.00
62904;DHT22;49000;50.698;13.322;2023-07-29T09:08:53;24.80;1.00
62904;DHT22;49000;50.698;13.322;2023-07-29T09:11:20;24.80;1.00
62904;DHT22;49000;50.698;13.322;2023-07-29T09:13:46;24.60;1.00
62904;DHT22;49000;50.698;13.322;2023-07-29T09:16:11;24.60;1.00
62904;DHT22;49000;50.698;13.322;2023-07-29T09:18:37;25.00;1.00
62904;DHT22;49000;50.698;13.322;2023-07-29T09:21:03;25.10;1.00
62904;DHT22;49000;50.698;13.322;2023-07-29T09:23:38;25.10;1.00
62904;DHT22;49000;50.698;13.322;2023-07-29T09:26:05;25.80;1.00
62904;DHT22;49000;50.698;13.322;2023-07-29T09:28:34;26.40;1.00
62904;DHT22;49000;50.698;13.322;2023-07-29T09:31:00;26.40;1.00
62904;DHT22;49000;50.698;13.322;2023-07-29T09:33:26;26.20;1.00
62904;DHT22;49000;50.698;13.322;2023-07-29T09:35:52;25.80;1.00
62904;DHT22;49000;50.698;13.322;2023-07-29T09:38:17;25.90;1.00
62904;DHT22;49000;50.698;13.322;2023-07-29T09:40:43;26.40;1.00
62904;DHT22;49000;50.698;13.322;2023-07-29T09:43:10;26.60;1.00
62904;DHT22;49000;50.698;13.322;2023-07-29T09:45:37;26.40;1.00
62904;DHT22;49000;50.698;13.322;2023-07-29T09:48:04;26.70;1.00
62904;DHT22;49000;50.698;13.322;2023-07-29T09:50:34;27.20;1.00
62904;DHT22;49000;50.698;13.322;2023-07-29T09:53:01;27.30;1.00
62904;DHT22;49000;50.698;13.322;2023-07-29T09:55:28;27.50;1.00
62904;DHT22;49000;50.698;13.322;2023-07-29T09:57:58;27.10;1.00
62904;DHT22;49000;50.698;13.322;2023-07-29T10:00:30;26.60;1.00
62904;DHT22;49000;50.698;13.322;2023-07-29T10:02:56;26.30;1.00
62904;DHT22;49000;50.698;13.322;2023-07-29T10:05:26;26.30;1.00
62904;DHT22;49000;50.698;13.322;2023-07-29T10:07:52;26.10;1.00
62904;DHT22;49000;50.698;13.322;2023-07-29T10:10:20;26.00;1.00
62904;DHT22;49000;50.698;13.322;2023-07-29T10:12:46;25.90;1.00
62904;DHT22;49000;50.698;13.322;2023-07-29T10:15:12;25.80;1.00
62904;DHT22;49000;50.698;13.322;2023-07-29T10:17:38;25.60;1.00
62904;DHT22;49000;50.698;13.322;2023-07-29T10:20:09;25.60;1.00
62904;DHT22;49000;50.698;13.322;2023-07-29T10:22:42;25.60;1.00
62904;DHT22;49000;50.698;13.322;2023-07-29T10:25:24;25.20;1.00
62904;DHT22;49000;50.698;13.322;2023-07-29T10:27:53;24.80;1.00
62904;DHT22;49000;50.698;13.322;2023-07-29T10:30:21;24.70;1.00
62904;DHT22;49000;50.698;13.322;2023-07-29T10:32:47;24.60;1.00
62904;DHT22;49000;50.698;13.322;2023-07-29T10:35:15;24.70;1.00
62904;DHT22;49000;50.698;13.322;2023-07-29T10:37:41;24.80;1.00
62904;DHT22;49000;50.698;13.322;2023-07-29T10:40:11;24.80;1.00
62904;DHT22;49000;50.698;13.322;2023-07-29T10:42:38;24.80;1.00
62904;DHT22;49000;50.698;13.322;2023-07-29T10:45:20;24.90;1.00
62904;DHT22;49000;50.698;13.322;2023-07-29T10:47:47;24.90;1.00
62904;DHT22;49000;50.698;13.322;2023-07-29T10:50:20;24.50;1.00
62904;DHT22;49000;50.698;13.322;2023-07-29T10:52:52;24.40;1.00
62904;DHT22;49000;50.698;13.322;2023-07-29T10:55:27;24.30;1.00
62904;DHT22;49000;50.698;13.322;2023-07-29T10:58:08;24.20;1.00
62904;DHT22;49000;50.698;13.322;2023-07-29T11:00:34;24.40;1.00
62904;DHT22;49000;50.698;13.322;2023-07-29T11:03:05;24.30;1.00
62904;DHT22;49000;50.698;13.322;2023-07-29T11:05:48;24.30;1.00
62904;DHT22;49000;50.698;13.322;2023-07-29T11:08:22;24.00;1.00
62904;DHT22;49000;50.698;13.322;2023-07-29T11:11:05;23.90;1.00
62904;DHT22;49000;50.698;13.322;2023-07-29T11:13:32;23.80;1.00
62904;DHT22;49000;50.698;13.322;2023-07-29T11:15:58;23.70;1.00
62904;DHT22;49000;50.698;13.322;2023-07-29T11:18:34;23.60;1.00
62904;DHT22;49000;50.698;13.322;2023-07-29T11:21:01;23.80;1.00
62904;DHT22;49000;50.698;13.322;2023-07-29T11:23:37;23.90;1.00
62904;DHT22;49000;50.698;13.322;2023-07-29T11:26:03;23.60;1.00
62904;DHT22;49000;50.698;13.322;2023-07-29T11:28:30;23.60;1.00
62904;DHT22;49000;50.698;13.322;2023-07-29T11:30:56;23.80;1.00
62904;DHT22;49000;50.698;13.322;2023-07-29T11:33:24;23.60;1.00
62904;DHT22;49000;50.698;13.322;2023-07-29T11:35:51;23.60;1.00
62904;DHT22;49000;50.698;13.322;2023-07-29T11:38:17;23.60;1.00
62904;DHT22;49000;50.698;13.322;2023-07-29T11:40:52;23.50;1.00
62904;DHT22;49000;50.698;13.322;2023-07-29T11:43:18;23.20;1.00
62904;DHT22;49000;50.698;13.322;2023-07-29T11:45:44;23.30;1.00
62904;DHT22;49000;50.698;13.322;2023-07-29T11:48:10;23.40;1.00
62904;DHT22;49000;50.698;13.322;2023-07-29T11:50:35;23.60;1.00
62904;DHT22;49000;50.698;13.322;2023-07-29T11:53:01;23.50;1.00
62904;DHT22;49000;50.698;13.322;2023-07-29T11:55:27;23.60;1.00
62904;DHT22;49000;50.698;13.322;2023-07-29T11:57:52;23.90;1.00
62904;DHT22;49000;50.698;13.322;2023-07-29T12:00:18;23.60;1.00
62904;DHT22;49000;50.698;13.322;2023-07-29T12:02:45;23.40;1.00
62904;DHT22;49000;50.698;13.322;2023-07-29T12:05:12;23.70;1.00
62904;DHT22;49000;50.698;13.322;2023-07-29T12:07:38;23.80;1.00
62904;DHT22;49000;50.698;13.322;2023-07-29T12:10:05;24.00;1.00
62904;DHT22;49000;50.698;13.322;2023-07-29T12:12:31;24.40;1.00
62904;DHT22;49000;50.698;13.322;2023-07-29T12:14:57;24.20;1.00
62904;DHT22;49000;50.698;13.322;2023-07-29T12:17:22;24.20;1.00
62904;DHT22;49000;50.698;13.322;2023-07-29T12:19:48;24.40;1.00
62904;DHT22;49000;50.698;13.322;2023-07-29T12:22:18;24.30;1.00
62904;DHT22;49000;50.698;13.322;2023-07-29T12:24:44;24.00;1.00
62904;DHT22;49000;50.698;13.322;2023-07-29T12:27:14;23.80;1.00
62904;DHT22;49000;50.698;13.322;2023-07-29T12:29:42;23.60;1.00
62904;DHT22;49000;50.698;13.322;2023-07-29T12:32:08;23.70;1.00
62904;DHT22;49000;50.698;13.322;2023-07-29T12:34:35;24.10;1.00
62904;DHT22;49000;50.698;13.322;2023-07-29T12:37:02;24.10;1.00
62904;DHT22;49000;50.698;13.322;2023-07-29T12:39:31;23.70;1.00
62904;DHT22;49000;50.698;13.322;2023-07-29T12:41:58;23.40;1.00
62904;DHT22;49000;50.698;13.322;2023-07-29T12:44:25;23.10;1.00
62904;DHT22;49000;50.698;13.322;2023-07-29T12:46:51;23.30;1.00
62904;DHT22;49000;50.698;13.322;2023-07-29T12:49:17;23.50;1.00
62904;DHT22;49000;50.698;13.322;2023-07-29T12:51:42;23.60;1.00
62904;DHT22;49000;50.698;13.322;2023-07-29T12:54:08;23.60;1.00
62904;DHT22;49000;50.698;13.322;2023-07-29T12:56:34;23.60;1.00
62904;DHT22;49000;50.698;13.322;2023-07-29T12:59:00;23.90;1.00
62904;DHT22;49000;50.698;13.322;2023-07-29T13:01:27;24.30;1.00
62904;DHT22;49000;50.698;13.322;2023-07-29T13:03:53;24.80;1.00
62904;DHT22;49000;50.698;13.322;2023-07-29T13:06:18;25.30;1.00
62904;DHT22;49000;50.698;13.322;2023-07-29T13:08:44;25.30;1.00
62904;DHT22;49000;50.698;13.322;2023-07-29T13:11:10;24.80;1.00
62904;DHT22;49000;50.698;13.322;2023-07-29T13:13:36;25.00;1.00
62904;DHT22;49000;50.698;13.322;2023-07-29T13:16:02;25.90;1.00
62904;DHT22;49000;50.698;13.322;2023-07-29T13:18:28;26.90;1.00
62904;DHT22;49000;50.698;13.322;2023-07-29T13:20:54;27.50;1.00
62904;DHT22;49000;50.698;13.322;2023-07-29T13:23:19;27.10;1.00
62904;DHT22;49000;50.698;13.322;2023-07-29T13:25:45;27.30;1.00
62904;DHT22;49000;50.698;13.322;2023-07-29T13:28:11;27.50;1.00
62904;DHT22;49000;50.698;13.322;2023-07-29T13:30:38;27.70;1.00
62904;DHT22;49000;50.698;13.322;2023-07-29T13:33:04;28.00;1.00
62904;DHT22;49000;50.698;13.322;2023-07-29T13:35:30;28.10;1.00
62904;DHT22;49000;50.698;13.322;2023-07-29T13:37:56;28.20;1.00
62904;DHT22;49000;50.698;13.322;2023-07-29T13:40:21;28.60;1.00
62904;DHT22;49000;50.698;13.322;2023-07-29T13:42:47;28.80;1.00
62904;DHT22;49000;50.698;13.322;2023-07-29T13:45:12;29.40;1.00
62904;DHT22;49000;50.698;13.322;2023-07-29T13:47:38;29.90;1.00
62904;DHT22;49000;50.698;13.322;2023-07-29T13:50:04;29.40;1.00
62904;DHT22;49000;50.698;13.322;2023-07-29T13:52:30;29.20;1.00
62904;DHT22;49000;50.698;13.322;2023-07-29T13:54:55;29.60;1.00
62904;DHT22;49000;50.698;13.322;2023-07-29T13:57:21;29.70;1.00
62904;DHT22;49000;50.698;13.322;2023-07-29T13:59:46;30.00;1.00
62904;DHT22;49000;50.698;13.322;2023-07-29T14:02:12;30.20;1.00
62904;DHT22;49000;50.698;13.322;2023-07-29T14:04:38;29.80;1.00
62904;DHT22;49000;50.698;13.322;2023-07-29T14:07:04;30.40;1.00
62904;DHT22;49000;50.698;13.322;2023-07-29T14:09:29;30.20;1.00
62904;DHT22;49000;50.698;13.322;2023-07-29T14:11:55;29.90;1.00
62904;DHT22;49000;50.698;13.322;2023-07-29T14:14:21;30.00;1.00
62904;DHT22;49000;50.698;13.322;2023-07-29T14:16:46;29.70;1.00
62904;DHT22;49000;50.698;13.322;2023-07-29T14:19:12;29.90;1.00
62904;DHT22;49000;50.698;13.322;2023-07-29T14:21:38;29.40;1.00
62904;DHT22;49000;50.698;13.322;2023-07-29T14:24:05;29.00;1.00
62904;DHT22;49000;50.698;13.322;2023-07-29T14:26:30;29.40;1.00
62904;DHT22;49000;50.698;13.322;2023-07-29T14:28:56;29.90;1.00
62904;DHT22;49000;50.698;13.322;2023-07-29T14:31:21;29.60;1.00
62904;DHT22;49000;50.698;13.322;2023-07-29T14:33:47;30.10;1.00
62904;DHT22;49000;50.698;13.322;2023-07-29T14:36:15;30.00;1.00
62904;DHT22;49000;50.698;13.322;2023-07-29T14:38:40;30.00;1.00
62904;DHT22;49000;50.698;13.322;2023-07-29T14:41:06;30.10;1.00
62904;DHT22;49000;50.698;13.322;2023-07-29T14:43:31;29.70;1.00
62904;DHT22;49000;50.698;13.322;2023-07-29T14:45:57;30.00;1.00
62904;DHT22;49000;50.698;13.322;2023-07-29T14:48:23;29.00;1.00
62904;DHT22;49000;50.698;13.322;2023-07-29T14:50:48;28.90;1.00
62904;DHT22;49000;50.698;13.322;2023-07-29T14:53:14;28.70;1.00
62904;DHT22;49000;50.698;13.322;2023-07-29T14:55:40;29.20;1.00
62904;DHT22;49000;50.698;13.322;2023-07-29T14:58:05;29.90;1.00
62904;DHT22;49000;50.698;13.322;2023-07-29T15:00:31;29.60;1.00
62904;DHT22;49000;50.698;13.322;2023-07-29T15:02:56;30.60;1.00
62904;DHT22;49000;50.698;13.322;2023-07-29T15:05:22;31.30;1.00
62904;DHT22;49000;50.698;13.322;2023-07-29T15:07:47;31.70;1.00
62904;DHT22;49000;50.698;13.322;2023-07-29T15:10:16;32.00;1.00
62904;DHT22;49000;50.698;13.322;2023-07-29T15:12:43;32.30;1.00
62904;DHT22;49000;50.698;13.322;2023-07-29T15:15:10;32.30;1.00
62904;DHT22;49000;50.698;13.322;2023-07-29T15:17:35;32.20;1.00
62904;DHT22;49000;50.698;13.322;2023-07-29T15:20:02;33.00;1.00
62904;DHT22;49000;50.698;13.322;2023-07-29T15:22:29;33.30;1.00
62904;DHT22;49000;50.698;13.322;2023-07-29T15:24:54;33.70;1.00
62904;DHT22;49000;50.698;13.322;2023-07-29T15:27:20;34.40;1.00